Résultats

LA ROUTE DE L ETOILE
La route de l'étoile. Édition 2016.

86 Km
07/02/2016 à 09:00:00 - ALES (30)
121 arrivant(e)s.


 
Les autres classements de cet évènement




Place▲ Temps Dossard Nom Prenom Categ #Categ Sexe #Sexe Club Vit Moy Diplôme Partager
1 02:11:49 60 DUCULTY BASTIEN C 1 M 1 VC VILLEFRANCHE EN BEAUJOLAIS 39,15
2 02:14:31 99 LUBACH FREDERIC D 1 M 2 POLICE NATIONALE 38,36
3 02:14:31 127 ROUX BENJAMIN C 2 M 3 TEAM SPRINTERS TROPEZIENS 38,36
4 02:14:32 121 REY VALENTIN C 3 M 4 VELO SPRINT ROMANAIS PEAGEOIS 38,35
5 02:14:32 143 TURC BLAISE C 4 M 5 38,35
6 02:14:33 100 MARTIN HUGO C 5 M 6 AC BOLLENE 38,35
7 02:14:34 132 SERRAILLE TRISTAN C 6 M 7 UC VOIRON 38,35
8 02:14:41 114 POTTIER CYRILLE D 2 M 8 TEAM SPRINTERS TROPEZIENS 38,31
9 02:15:40 49 DANIS THIBAUT C 7 M 9 BMC POLE COMPETITION 38,03
10 02:15:43 19 BONNEROT-AGNIEL FLORIAN C 8 M 10 34000 38,02
11 02:15:44 59 DUBEST ALEXANDRE C 9 M 11 CVAC VIENNE 38,02
12 02:15:45 21 BOUISSIERE SEBASTIEN C 10 M 12 TEAM MONTAGNAC AC 38,01
13 02:15:46 56 DENA BRUNO D 3 M 13 VELO CLUB COEUR DU VAR 38,01
14 02:15:56 75 GOASDOUE LOIC C 11 M 14 AC BOLLENE 37,96
15 02:16:12 42 COLL YOAN C 12 M 15 BMC POLE COMPETITION 37,89
16 02:16:12 78 GRANIER DYLAN C 13 M 16 VSGA 37,89
17 02:16:12 37 CHAUSSEE JULIEN C 14 M 17 NIMES CYCLISME 37,89
18 02:16:13 2076 GENNESSEAUX EMMANUEL E 1 M 18 NIMES CYCLISME 37,88
19 02:16:20 47 DAGORNE FLORIAN C 15 M 19 TEAM MONTAGNAC AC 37,85
20 02:16:21 111 PEZERIL CLEMENT C 16 M 20 UC VOIRON 37,84
21 02:16:22 79 GRIMAL JEREMY C 17 M 21 BICYCLE STORE 37,84
22 02:16:23 125 ROUDIERE THEO C 18 M 22 BEZIERS MEDITERANNEE CYCLISME 37,83
23 02:16:23 130 SARROU LUDOVIC D 4 M 23 BMC 37,83
24 02:16:23 140 THOMAS SYLVAIN C 19 M 24 C.O CARNON 37,83
25 02:16:23 89 KANEL FLORIAN C 20 M 25 BMC BEZIER 37,83
26 02:16:23 50 DAUDE STEPHANE D 5 M 26 VELO CLUB MENDE LOZERE 37,83
27 02:16:24 85 JACOBI ERWAN C 21 M 27 37,83
28 02:16:24 148 VOLLMER ROBIN C 22 M 28 ASPH MONTPELLIER 37,83
29 02:16:24 65 EHALD MATHIEU C 23 M 29 CS COUXOIS 37,83
30 02:16:25 139 THEO VAN C 24 M 30 BMC 37,83
31 02:16:26 105 MERLE JULIEN D 6 M 31 VELO CLUB SALINDRES ST PRIVAT 37,82
32 02:16:26 2107 LEFEVER JEAN-MARC E 2 M 32 TOBESPORT 37,82
33 02:16:27 97 LEFEBVRE RICHARD D 7 M 33 TEAM MONTAGNAC AC 37,82
34 02:16:28 2061 FAVEREAU JEAN-JACQUES F 1 M 34 U S PLAISANCE CYCLISME 37,81
35 02:16:29 22 BOUJENAH SEBASTIEN C 25 M 35 TRIATHLAIX 37,81
36 02:16:29 109 PALOT ERIC D 8 M 36 GUIDON D'OR TARASCONNAIS 37,81
37 02:16:30 2142 REBOUL YVES E 3 M 37 VC MIRAMAS 37,80
38 02:16:44 147 VALLEJO CEDRIC D 9 M 38 ASPH MONTPELLIER 37,74
39 02:17:35 2164 SULE ROBERT F 2 M 39 USC VAISON 37,50
40 02:17:58 45 CROZIER MAXIME D 10 M 40 USC BERG ET COIRON 37,40
41 02:17:58 95 LE-LUE KEVIN C 26 M 41 UC MONTMEYRAN VALENCE 37,40
42 02:18:06 11 BASCOP CYRIL D 11 M 42 MCO MELUN/CCORANGE 37,36
43 02:18:06 2109 LEROUX MICKAEL E 4 M 43 TEAM SPRINTERS TROPEZIENS 37,36
44 02:19:04 6 ANTOINE JEREMIE C 27 M 44 TRIATHL'AIX 37,10
45 02:19:09 144 VALENTIN HERVE D 12 M 45 GUIDON D'OR TARASCONNAIS 37,08
46 02:19:10 2056 DESCHEMAKER FRANCK E 5 M 46 CV PERNES 37,08
47 02:19:14 72 GERMAIN ADRIEN C 28 M 47 MONTPELLIER TRIATHLON 37,06
48 02:19:17 2075 GENEVES ROLAND F 3 M 48 TEAM ATC 26 DONZERE 37,05
49 02:19:25 2101 LATINI THIERRY E 6 M 49 TEAM SPRINTERS TROPEZIENS 37,01
50 02:21:24 92 LAUNOY RAPHAEL C 29 M 50 36,49
51 02:23:32 2168 TURC JEAN-FRANCOIS F 4 M 51 35,95
52 02:23:32 80 GUALANDI LAURENT D 13 M 52 TEAM SPRINTERS TROPEZIENS 35,95
53 02:23:36 2041 CHASSERAY CLAUDE E 7 M 53 MOUSQUETAIRES CYCLISTES PRADEENS 35,93
54 02:24:32 70 GATHIER THIBAULT C 30 M 54 UCMV 35,70
55 02:25:49 2029 CABAL CHRISTIAN E 8 M 55 UC31 35,39
56 02:25:50 110 PEREIRA GUILHEM D 14 M 56 MASSALIA CYCLISME 35,38
57 02:25:50 2066 GAILLARD FRANCK E 9 M 57 VELO CLUB SALINDRES ST PRIVAT 35,38
58 02:25:51 2088 GUIHUIT MARIAN F 5 M 58 VELO CLUB SALINDRES ST PRIVAT 35,38
59 02:26:30 2172 VENDELLI MARC E 10 M 59 AC BOLLENE 35,22
60 02:26:32 63 DUMAS SEBASTIEN D 15 M 60 VELO CLUB SALINDRES ST PRIVAT 35,21
61 02:26:32 2140 QUINTANA JEROME E 11 M 61 CS COUXOIS 35,21
62 02:26:32 2171 VAN-BOGERIJEN MARK E 12 M 62 VCLL/KMS 35,21
63 02:26:32 23 BOURDILLAUD YANN D 16 M 63 VELO CLUB VALREAS 35,21
64 02:26:33 7 ARMAND PASCAL D 17 M 64 TEAM TRIATL'AIX 35,21
65 02:26:33 2007 AUTRIC FREDERIC E 13 M 65 VCLL PEZENAS 35,21
66 02:26:35 2084 GOURON MICHEL E 14 M 66 TEAM MONTAGNAC AC 35,20
67 02:26:35 38 CHIAPELLO LIONEL D 18 M 67 VELO CLUB AUBAGNAIS 35,20
68 02:26:38 86 JAY RAPHAEL D 19 M 68 VELO SPRINT ROMANAIS PEAGEOIS 35,19
69 02:26:41 141 TOUBOUL STEEVE C 31 M 69 TEAM MONTAGNAC AC 35,18
70 02:28:20 2037 CARTAL RICHARD E 15 M 70 TEAM ATC 26 DONZERE 34,79
71 02:29:44 69 FOURGEAUT JEROME D 20 M 71 AVENIR CYCLISTE ROGNONAIS 34,46
72 02:29:44 74 GIRAUD PASCAL D 21 M 72 VELO CLUB SALINDRES ST PRIVAT 34,46
73 02:29:52 2074 GENDROT PATRICK E 16 M 73 AVENIR CYCLISTE BOLLENOIS 34,43
74 02:35:03 91 LATINI ROMAIN C 32 M 74 TEAM SPRINTERS TROPEZIENS 33,28
75 02:35:03 84 IVANOVA ELENA B 1 F 1 UC31 33,28
76 02:35:05 33 CHANTON CHRISTOPHE D 22 M 75 USC VAISON 33,27
77 02:35:05 2065 FLOURET REMI G 1 M 76 VELO CLUB 3 C 33,27
78 02:35:05 2116 MAURIN LAURENT E 17 M 77 VELO CLUB SALINDRES ST PRIVAT 33,27
79 02:35:05 137 TASTAVIN OFELIE A 1 F 2 VELO CLUB SALINDRES 33,27
80 02:35:06 2146 ROQUE ERIC E 18 M 78 FC BARBANTANE 33,27
81 02:35:06 2099 LAMANDE PATRICK F 6 M 79 33,27
82 02:35:10 2012 BELLUCCI BRUNO E 19 M 80 ECSL 33,25
83 02:35:22 18 BOIDIN FRANCOIS D 23 M 81 USC VAISON 33,21
84 02:35:22 2043 CHETCUTI PATRICK E 20 M 82 AVENIR CYCLISTE ROGNONAIS 33,21
85 02:35:49 2118 MENETRIEUX BRUNO F 7 M 83 33,12
86 02:35:49 2170 VALERO JESUS F 8 M 84 33,12
87 02:35:49 2123 OGER DOMINIQUE E 21 M 85 CCORANGE 33,12
88 02:35:50 2163 SOURBADERE JOEL E 22 M 86 U S PLAISANCE CYCLISME 33,11
89 02:36:18 40 CLAVEL ANTHONY C 33 M 87 GO LA LECHERE 33,01
90 02:36:19 2050 DANIS PASCAL F 9 M 88 AOB BAGARD 33,01
91 02:36:32 83 HUDRISIER ANTONIN C 34 M 89 ASPH MONTPELLIER 32,96
92 02:37:00 2011 BECK SERGE E 23 M 90 UCSV 32,87
93 02:37:25 2105 LEBRAT JOEL E 24 M 91 UNION CYCLISTE SAINT SATURNIN VEDENE 32,78
94 02:37:33 2151 SALAZAR MANUEL G 2 M 92 LA VOULTE CYCLOSPORTIF 32,75
95 02:38:55 108 NURIT FLORIAN C 35 M 93 32,47
96 02:38:56 126 ROUVEYROL ALEXANDRE D 24 M 94 32,47
97 02:38:58 36 CHAUSSE JULIEN C 36 M 95 USC BERG ET COIRON 32,46
98 02:40:47 2167 TRZEWIK FABRICE E 25 M 96 VCLL PEZENAS 32,09
99 02:41:27 2113 LUBESPERE JEAN-FRANCOIS F 10 M 97 31,96
100 02:41:28 2028 BUQUET PAUL F 11 M 98 CCORANGE 31,96